Time;durP1;ratioP1;P1;durP2;ratioP2;P2;SDS_P1;SDS_P2;PMS_P1;PMS_P2;Temp;Humidity;BMP_temperature;BMP_pressure;BME280_temperature;BME280_humidity;BME280_pressure;Samples;Min_cycle;Max_cycle;Signal;HPM_P1;HPM_P2
2022/12/03 00:01:58;;;;;;;;;;;3.30;99.90;;;;;;5017459;28;212802;-72
2022/12/03 00:04:24;;;;;;;;;;;3.30;99.90;;;;;;5055533;28;19964;-72
2022/12/03 00:06:50;;;;;;;;;;;3.30;99.90;;;;;;5029252;28;214339;-71
2022/12/03 00:09:16;;;;;;;;;;;3.30;99.90;;;;;;5053820;28;20319;-72
2022/12/03 00:11:42;;;;;;;;;;;3.30;99.90;;;;;;5036378;28;207333;-72
2022/12/03 00:14:08;;;;;;;;;;;3.30;99.90;;;;;;5016614;28;137024;-72
2022/12/03 00:16:34;;;;;;;;;;;3.30;99.90;;;;;;5074747;28;19925;-72
2022/12/03 00:19:00;;;;;;;;;;;3.40;99.90;;;;;;5043904;28;201990;-72
2022/12/03 00:21:26;;;;;;;;;;;3.40;99.90;;;;;;5082831;28;20389;-72
2022/12/03 00:23:52;;;;;;;;;;;3.40;99.90;;;;;;4994482;28;214932;-72
2022/12/03 00:26:18;;;;;;;;;;;3.40;99.90;;;;;;5088423;28;20360;-71
2022/12/03 00:28:44;;;;;;;;;;;3.40;99.90;;;;;;5012920;28;187414;-72
2022/12/03 00:31:10;;;;;;;;;;;3.50;99.90;;;;;;5072392;28;19951;-72
2022/12/03 00:33:36;;;;;;;;;;;3.50;99.90;;;;;;5027408;28;197952;-72
2022/12/03 00:36:02;;;;;;;;;;;3.50;99.90;;;;;;5073373;28;20304;-72
2022/12/03 00:38:28;;;;;;;;;;;3.60;99.90;;;;;;4998553;28;208871;-71
2022/12/03 00:40:54;;;;;;;;;;;3.60;99.90;;;;;;5073458;28;20036;-72
2022/12/03 00:43:20;;;;;;;;;;;3.70;99.90;;;;;;5009348;28;212260;-71
2022/12/03 00:45:46;;;;;;;;;;;3.70;99.90;;;;;;5067153;28;19924;-70
2022/12/03 00:48:12;;;;;;;;;;;3.70;99.90;;;;;;5032857;28;159480;-70
2022/12/03 00:50:38;;;;;;;;;;;3.80;99.90;;;;;;5078084;28;19943;-70
2022/12/03 00:53:03;;;;;;;;;;;3.80;99.90;;;;;;5009857;28;206490;-70
2022/12/03 00:55:29;;;;;;;;;;;3.80;99.90;;;;;;5070420;28;20089;-71
2022/12/03 00:57:55;;;;;;;;;;;3.80;99.90;;;;;;5032046;28;136137;-71
2022/12/03 01:00:24;;;;;;;;;;;3.80;99.90;;;;;;5063041;28;19935;-70
2022/12/03 01:02:50;;;;;;;;;;;3.80;99.90;;;;;;5041950;28;138888;-71
2022/12/03 01:05:17;;;;;;;;;;;3.80;99.90;;;;;;5073202;28;19931;-70
2022/12/03 01:07:43;;;;;;;;;;;3.90;99.90;;;;;;5024818;28;206993;-71
2022/12/03 01:10:09;;;;;;;;;;;3.80;99.90;;;;;;5055549;28;19929;-71
2022/12/03 01:12:35;;;;;;;;;;;3.90;99.90;;;;;;5012375;28;147065;-70
2022/12/03 01:15:01;;;;;;;;;;;3.90;99.90;;;;;;5028365;28;20184;-70
2022/12/03 01:17:27;;;;;;;;;;;3.90;99.90;;;;;;5040308;27;144314;-71
2022/12/03 01:19:53;;;;;;;;;;;3.90;99.90;;;;;;5032848;28;19932;-71
2022/12/03 01:22:19;;;;;;;;;;;3.90;99.90;;;;;;5023935;28;207072;-72
2022/12/03 01:24:45;;;;;;;;;;;3.80;99.90;;;;;;5068068;28;19925;-71
2022/12/03 01:27:11;;;;;;;;;;;3.80;99.90;;;;;;5013543;28;191431;-71
2022/12/03 01:29:38;;;;;;;;;;;3.90;99.90;;;;;;5080326;28;19978;-70
2022/12/03 01:32:16;;;;;;;;;;;3.90;99.90;;;;;;5020184;28;152558;-71
2022/12/03 01:34:46;;;;;;;;;;;3.90;99.90;;;;;;5071006;28;20428;-71
2022/12/03 01:37:12;;;;;;;;;;;3.90;99.90;;;;;;5025374;28;158824;-71
2022/12/03 01:39:38;;;;;;;;;;;3.90;99.90;;;;;;5061486;28;20452;-71
2022/12/03 01:42:05;;;;;;;;;;;3.90;99.90;;;;;;5025302;28;204196;-71
2022/12/03 01:44:32;;;;;;;;;;;3.90;99.90;;;;;;5066670;28;19921;-71
2022/12/03 01:47:00;;;;;;;;;;;3.90;99.90;;;;;;5031705;28;211623;-71
2022/12/03 01:49:36;;;;;;;;;;;3.90;99.90;;;;;;5065566;28;19928;-71
2022/12/03 01:52:02;;;;;;;;;;;3.90;99.90;;;;;;5021254;28;207755;-71
2022/12/03 01:54:31;;;;;;;;;;;3.90;99.90;;;;;;5079706;28;20389;-71
2022/12/03 01:56:57;;;;;;;;;;;3.90;99.90;;;;;;5018988;28;207227;-71
2022/12/03 01:59:29;;;;;;;;;;;3.90;99.90;;;;;;5073762;28;19956;-71
2022/12/03 02:01:55;;;;;;;;;;;3.90;99.90;;;;;;4998776;27;207176;-71
2022/12/03 02:04:22;;;;;;;;;;;3.90;99.90;;;;;;5066456;28;19939;-71
2022/12/03 02:06:48;;;;;;;;;;;3.90;99.90;;;;;;5060391;28;222019;-71
2022/12/03 02:09:14;;;;;;;;;;;3.90;99.90;;;;;;5066717;28;19924;-71
2022/12/03 02:11:45;;;;;;;;;;;3.90;99.90;;;;;;5051828;28;217597;-72
2022/12/03 02:14:12;;;;;;;;;;;3.90;99.90;;;;;;5005155;28;19928;-71
2022/12/03 02:16:41;;;;;;;;;;;3.90;99.90;;;;;;5060409;28;207880;-72
2022/12/03 02:19:14;;;;;;;;;;;3.90;99.90;;;;;;5007162;28;30469;-71
2022/12/03 02:21:45;;;;;;;;;;;3.80;99.90;;;;;;5051850;28;205213;-71
2022/12/03 02:24:30;;;;;;;;;;;3.80;99.90;;;;;;5006826;28;210112;-71
2022/12/03 02:26:56;;;;;;;;;;;3.80;99.90;;;;;;5020696;28;214538;-70
2022/12/03 02:29:22;;;;;;;;;;;3.80;99.90;;;;;;5061805;28;19929;-70
2022/12/03 02:31:48;;;;;;;;;;;3.80;99.90;;;;;;5027322;27;208055;-70
2022/12/03 02:34:33;;;;;;;;;;;3.70;99.90;;;;;;5064713;28;19927;-70
2022/12/03 02:37:00;;;;;;;;;;;3.70;99.90;;;;;;5033885;28;224758;-70
2022/12/03 02:39:26;;;;;;;;;;;3.70;99.90;;;;;;5064818;28;19936;-70
2022/12/03 02:44:37;;;;;;;;;;;3.70;99.90;;;;;;5053092;28;19925;-72
2022/12/03 02:47:03;;;;;;;;;;;3.70;99.90;;;;;;5023236;28;211647;-71
2022/12/03 02:49:29;;;;;;;;;;;3.70;99.90;;;;;;5050314;28;19929;-71
2022/12/03 02:51:55;;;;;;;;;;;3.70;99.90;;;;;;5047406;28;212126;-72
2022/12/03 02:54:21;;;;;;;;;;;3.60;99.90;;;;;;5069383;28;19925;-72
2022/12/03 02:56:47;;;;;;;;;;;3.70;99.90;;;;;;5031591;28;215217;-72
2022/12/03 02:59:13;;;;;;;;;;;3.70;99.90;;;;;;5065737;28;19928;-72
2022/12/03 03:01:39;;;;;;;;;;;3.60;99.90;;;;;;5073174;28;208359;-72
2022/12/03 03:04:05;;;;;;;;;;;3.60;99.90;;;;;;5024322;28;198096;-72
2022/12/03 03:06:32;;;;;;;;;;;3.60;99.90;;;;;;5075008;28;19931;-72
2022/12/03 03:08:58;;;;;;;;;;;3.60;99.90;;;;;;5010853;28;208553;-72
2022/12/03 03:11:24;;;;;;;;;;;3.60;99.90;;;;;;5070676;28;19924;-72
2022/12/03 03:13:50;;;;;;;;;;;3.60;99.90;;;;;;5026019;28;192964;-72
2022/12/03 03:16:16;;;;;;;;;;;3.60;99.90;;;;;;5075368;28;19928;-73
2022/12/03 03:18:42;;;;;;;;;;;3.60;99.90;;;;;;5027725;28;168869;-72
2022/12/03 03:21:08;;;;;;;;;;;3.60;99.90;;;;;;5109851;27;20306;-72
2022/12/03 03:23:34;;;;;;;;;;;3.60;99.90;;;;;;5036366;28;190375;-72
2022/12/03 03:26:05;;;;;;;;;;;3.60;99.90;;;;;;5075346;28;19934;-72
2022/12/03 03:28:33;;;;;;;;;;;3.50;99.90;;;;;;5032189;28;205794;-72
2022/12/03 03:31:00;;;;;;;;;;;3.60;99.90;;;;;;5073852;28;19929;-72
2022/12/03 03:33:27;;;;;;;;;;;3.60;99.90;;;;;;5048040;27;206736;-72
2022/12/03 03:35:53;;;;;;;;;;;3.60;99.90;;;;;;5066780;28;20429;-72
2022/12/03 03:38:19;;;;;;;;;;;3.60;99.90;;;;;;5012339;28;201102;-72
2022/12/03 03:40:46;;;;;;;;;;;3.60;99.90;;;;;;5066769;28;19925;-72
2022/12/03 03:43:12;;;;;;;;;;;3.60;99.90;;;;;;5014983;28;132181;-72
2022/12/03 03:45:38;;;;;;;;;;;3.60;99.90;;;;;;5074178;28;19928;-72
2022/12/03 03:48:05;;;;;;;;;;;3.60;99.90;;;;;;5015449;28;207719;-71
2022/12/03 03:50:31;;;;;;;;;;;3.60;99.90;;;;;;5083188;28;19935;-71
2022/12/03 03:52:58;;;;;;;;;;;3.60;99.90;;;;;;5010791;28;207284;-71
2022/12/03 03:55:24;;;;;;;;;;;3.60;99.90;;;;;;5064984;28;19921;-72
2022/12/03 03:57:50;;;;;;;;;;;3.60;99.90;;;;;;5032918;28;221730;-71
2022/12/03 04:00:16;;;;;;;;;;;3.60;99.90;;;;;;5073280;28;19920;-71
2022/12/03 04:02:42;;;;;;;;;;;3.60;99.90;;;;;;5018356;28;122254;-71
2022/12/03 04:05:16;;;;;;;;;;;3.60;99.90;;;;;;5037703;28;19928;-71
2022/12/03 04:07:42;;;;;;;;;;;3.60;99.90;;;;;;5034373;27;207954;-70
2022/12/03 04:12:56;;;;;;;;;;;3.60;99.90;;;;;;5026870;28;217136;-71
2022/12/03 04:15:22;;;;;;;;;;;3.50;99.90;;;;;;5076961;28;19924;-71
2022/12/03 04:18:41;;;;;;;;;;;3.50;99.90;;;;;;5025350;28;150732;-71
2022/12/03 04:20:35;;;;;;;;;;;3.60;99.90;;;;;;5069933;28;20338;-71
2022/12/03 04:23:01;;;;;;;;;;;3.60;99.90;;;;;;5014460;28;212279;-71
2022/12/03 04:30:56;;;;;;;;;;;3.60;99.90;;;;;;5101697;28;19932;-71
2022/12/03 04:36:07;;;;;;;;;;;3.50;99.90;;;;;;5106759;27;19947;-71
2022/12/03 04:38:33;;;;;;;;;;;3.50;99.90;;;;;;4998033;28;211052;-71
2022/12/03 04:41:05;;;;;;;;;;;3.50;99.90;;;;;;5067509;28;19924;-71
2022/12/03 04:44:31;;;;;;;;;;;3.50;99.90;;;;;;5019142;28;157736;-71
2022/12/03 04:46:20;;;;;;;;;;;3.50;99.90;;;;;;5066469;28;19920;-72
2022/12/03 04:48:46;;;;;;;;;;;3.50;99.90;;;;;;5013684;28;192687;-71
2022/12/03 04:51:12;;;;;;;;;;;3.50;99.90;;;;;;5100701;28;19921;-71
2022/12/03 04:53:38;;;;;;;;;;;3.50;99.90;;;;;;5012403;28;184595;-71
2022/12/03 04:56:04;;;;;;;;;;;3.50;99.90;;;;;;5071141;28;19920;-72
2022/12/03 04:58:30;;;;;;;;;;;3.50;99.90;;;;;;5024048;28;186019;-71
2022/12/03 05:00:56;;;;;;;;;;;3.50;99.90;;;;;;5070937;28;19952;-71
2022/12/03 05:03:22;;;;;;;;;;;3.50;99.90;;;;;;5007261;28;143563;-71
2022/12/03 05:05:48;;;;;;;;;;;3.50;99.90;;;;;;5068210;28;20321;-71
2022/12/03 05:08:13;;;;;;;;;;;3.50;99.90;;;;;;5014168;28;207172;-71
2022/12/03 05:10:39;;;;;;;;;;;3.50;99.90;;;;;;5063785;28;19921;-71
2022/12/03 05:13:05;;;;;;;;;;;3.50;99.90;;;;;;5009745;28;208580;-71
2022/12/03 05:15:31;;;;;;;;;;;3.50;99.90;;;;;;5067983;28;19943;-71
2022/12/03 05:17:57;;;;;;;;;;;3.50;99.90;;;;;;5026916;28;171484;-71
2022/12/03 05:20:41;;;;;;;;;;;3.50;99.90;;;;;;5079137;28;20498;-71
2022/12/03 05:23:08;;;;;;;;;;;3.50;99.90;;;;;;5024132;28;169854;-71
2022/12/03 05:25:34;;;;;;;;;;;3.50;99.90;;;;;;5072519;28;19925;-71
2022/12/03 05:28:00;;;;;;;;;;;3.50;99.90;;;;;;5020918;28;136903;-71
2022/12/03 05:30:26;;;;;;;;;;;3.50;99.90;;;;;;5065193;28;19925;-71
2022/12/03 05:32:52;;;;;;;;;;;3.50;99.90;;;;;;5019782;28;207851;-71
2022/12/03 05:35:18;;;;;;;;;;;3.50;99.90;;;;;;5046221;28;19944;-71
2022/12/03 05:37:44;;;;;;;;;;;3.50;99.90;;;;;;5006097;28;207262;-71
2022/12/03 05:40:11;;;;;;;;;;;3.50;99.90;;;;;;5066043;28;19924;-71
2022/12/03 05:42:52;;;;;;;;;;;3.50;99.90;;;;;;5012743;28;207728;-71
2022/12/03 05:45:38;;;;;;;;;;;3.50;99.90;;;;;;5077531;28;20396;-70
2022/12/03 05:48:05;;;;;;;;;;;3.50;99.90;;;;;;5020758;28;205375;-72
2022/12/03 05:50:32;;;;;;;;;;;3.50;99.90;;;;;;5058404;28;19924;-71
2022/12/03 05:52:58;;;;;;;;;;;3.50;99.90;;;;;;5027253;28;131420;-70
2022/12/03 05:55:25;;;;;;;;;;;3.50;99.90;;;;;;5069869;28;20389;-71
2022/12/03 05:57:51;;;;;;;;;;;3.50;99.90;;;;;;4997016;28;212838;-71
2022/12/03 06:00:22;;;;;;;;;;;3.40;99.90;;;;;;5082228;28;19925;-71
2022/12/03 06:02:48;;;;;;;;;;;3.50;99.90;;;;;;5001324;28;188273;-71
2022/12/03 06:05:14;;;;;;;;;;;3.40;99.90;;;;;;5063207;28;20393;-71
2022/12/03 06:07:40;;;;;;;;;;;3.40;99.90;;;;;;5026085;28;229689;-71
2022/12/03 06:10:08;;;;;;;;;;;3.40;99.90;;;;;;5067481;28;19928;-71
2022/12/03 06:12:34;;;;;;;;;;;3.40;99.90;;;;;;5019063;28;129655;-72
2022/12/03 06:15:00;;;;;;;;;;;3.40;99.90;;;;;;5083932;28;19927;-72
2022/12/03 06:17:26;;;;;;;;;;;3.40;99.90;;;;;;5031336;28;138552;-70
2022/12/03 06:19:52;;;;;;;;;;;3.40;99.90;;;;;;5072651;28;20305;-71
2022/12/03 06:22:18;;;;;;;;;;;3.40;99.90;;;;;;5029197;28;207253;-71
2022/12/03 06:24:44;;;;;;;;;;;3.30;99.90;;;;;;5055285;28;19964;-71
2022/12/03 06:27:10;;;;;;;;;;;3.30;99.90;;;;;;5022525;28;207033;-71
2022/12/03 06:29:37;;;;;;;;;;;3.30;99.90;;;;;;5071414;28;19928;-71
2022/12/03 06:32:03;;;;;;;;;;;3.30;99.90;;;;;;5022343;28;208008;-71
2022/12/03 06:34:29;;;;;;;;;;;3.30;99.90;;;;;;5062828;28;19928;-71
2022/12/03 06:36:55;;;;;;;;;;;3.30;99.90;;;;;;5018203;28;214493;-71
2022/12/03 06:39:21;;;;;;;;;;;3.30;99.90;;;;;;5049180;28;20577;-71
2022/12/03 06:41:47;;;;;;;;;;;3.20;99.90;;;;;;5058067;28;213775;-71
2022/12/03 06:44:13;;;;;;;;;;;3.20;99.90;;;;;;5034732;28;19931;-71
2022/12/03 06:46:39;;;;;;;;;;;3.20;99.90;;;;;;5045480;28;238360;-70
2022/12/03 06:49:07;;;;;;;;;;;3.20;99.90;;;;;;5043882;28;41324;-72
2022/12/03 06:51:34;;;;;;;;;;;3.20;99.90;;;;;;5071845;28;19932;-71
2022/12/03 06:54:01;;;;;;;;;;;3.20;99.90;;;;;;4995729;28;209108;-71
2022/12/03 06:56:27;;;;;;;;;;;3.20;99.90;;;;;;5067177;28;19921;-71
2022/12/03 06:58:53;;;;;;;;;;;3.20;99.90;;;;;;5014886;28;209253;-71
2022/12/03 07:01:19;;;;;;;;;;;3.20;99.90;;;;;;5096511;28;19940;-71
2022/12/03 07:03:45;;;;;;;;;;;3.10;99.90;;;;;;5003963;28;212881;-72
2022/12/03 07:06:11;;;;;;;;;;;3.20;99.90;;;;;;5066813;28;20313;-72
2022/12/03 07:08:37;;;;;;;;;;;3.10;99.90;;;;;;5032907;28;229460;-73
2022/12/03 07:11:03;;;;;;;;;;;3.20;99.90;;;;;;5061840;28;20373;-73
2022/12/03 07:13:29;;;;;;;;;;;3.10;99.90;;;;;;5012328;28;205394;-72
2022/12/03 07:15:55;;;;;;;;;;;3.10;99.90;;;;;;5066071;28;19921;-73
2022/12/03 07:18:21;;;;;;;;;;;3.10;99.90;;;;;;5007815;28;197280;-73
2022/12/03 07:20:47;;;;;;;;;;;3.20;99.90;;;;;;5061689;28;19936;-73
2022/12/03 07:23:13;;;;;;;;;;;3.10;99.90;;;;;;5029698;28;208363;-73
2022/12/03 07:25:39;;;;;;;;;;;3.10;99.90;;;;;;5052961;28;19927;-73
2022/12/03 07:28:05;;;;;;;;;;;3.10;99.90;;;;;;4998685;28;203652;-72
2022/12/03 07:30:31;;;;;;;;;;;3.10;99.90;;;;;;5056331;28;19935;-71
2022/12/03 07:32:57;;;;;;;;;;;3.10;99.90;;;;;;5011485;28;140056;-71
2022/12/03 07:35:23;;;;;;;;;;;3.10;99.90;;;;;;5057670;28;19928;-71
2022/12/03 07:37:49;;;;;;;;;;;3.10;99.90;;;;;;5024631;28;180102;-72
2022/12/03 07:40:15;;;;;;;;;;;3.10;99.90;;;;;;5066337;28;19929;-73
2022/12/03 07:42:41;;;;;;;;;;;3.10;99.90;;;;;;5040076;28;205240;-73
2022/12/03 07:45:07;;;;;;;;;;;3.10;99.90;;;;;;5059836;28;19925;-71
2022/12/03 07:47:33;;;;;;;;;;;3.10;99.90;;;;;;5003778;28;167071;-71
2022/12/03 07:49:59;;;;;;;;;;;3.00;99.90;;;;;;5063249;28;19924;-72
2022/12/03 07:52:25;;;;;;;;;;;3.00;99.90;;;;;;5036055;27;217700;-73
2022/12/03 07:54:51;;;;;;;;;;;3.10;99.90;;;;;;5079721;28;19969;-73
2022/12/03 07:57:17;;;;;;;;;;;3.00;99.90;;;;;;5024232;28;211671;-72
2022/12/03 07:59:42;;;;;;;;;;;3.00;99.90;;;;;;5073789;28;19928;-73
2022/12/03 08:02:08;;;;;;;;;;;2.90;99.90;;;;;;5015619;28;157565;-73
2022/12/03 08:04:34;;;;;;;;;;;2.90;99.90;;;;;;5059273;28;19931;-72
2022/12/03 08:07:00;;;;;;;;;;;2.90;99.90;;;;;;5023424;28;223088;-72
2022/12/03 08:09:26;;;;;;;;;;;2.90;99.90;;;;;;5066946;28;19931;-73
2022/12/03 08:11:52;;;;;;;;;;;2.90;99.90;;;;;;5011502;28;211006;-72
2022/12/03 08:14:19;;;;;;;;;;;2.90;99.90;;;;;;5068309;28;20337;-72
2022/12/03 08:16:46;;;;;;;;;;;2.90;99.90;;;;;;5050115;28;216489;-72
2022/12/03 08:19:14;;;;;;;;;;;2.90;99.90;;;;;;5048852;28;19921;-72
2022/12/03 08:21:40;;;;;;;;;;;2.90;99.90;;;;;;5055501;28;207875;-72
2022/12/03 08:24:12;;;;;;;;;;;2.80;99.90;;;;;;5026417;28;69055;-72
2022/12/03 08:26:38;;;;;;;;;;;2.80;99.90;;;;;;5061784;28;204006;-72
2022/12/03 08:29:09;;;;;;;;;;;2.80;99.90;;;;;;5015443;28;182703;-72
2022/12/03 08:31:35;;;;;;;;;;;2.70;99.90;;;;;;5065640;28;19928;-72
2022/12/03 08:34:18;;;;;;;;;;;2.70;99.90;;;;;;5004426;28;209941;-72
2022/12/03 08:36:44;;;;;;;;;;;2.70;99.90;;;;;;5036307;28;211458;-72
2022/12/03 08:39:32;;;;;;;;;;;2.70;99.90;;;;;;5021565;28;19924;-72
2022/12/03 08:44:51;;;;;;;;;;;2.60;99.90;;;;;;5060521;28;19921;-73
2022/12/03 08:47:19;;;;;;;;;;;2.70;99.90;;;;;;5027818;28;131084;-73
2022/12/03 08:49:56;;;;;;;;;;;2.60;99.90;;;;;;5075467;28;19924;-73
2022/12/03 08:52:28;;;;;;;;;;;2.60;99.90;;;;;;5021905;27;236712;-72
2022/12/03 08:54:55;;;;;;;;;;;2.60;99.90;;;;;;5051567;28;19932;-72
2022/12/03 08:57:24;;;;;;;;;;;2.60;99.90;;;;;;5030076;27;216075;-72
2022/12/03 08:59:51;;;;;;;;;;;2.60;99.90;;;;;;5080022;28;19931;-72
2022/12/03 09:02:24;;;;;;;;;;;2.60;99.90;;;;;;4997462;28;173595;-71
2022/12/03 09:04:51;;;;;;;;;;;2.60;99.90;;;;;;5066785;28;20227;-71
2022/12/03 09:07:17;;;;;;;;;;;2.60;99.90;;;;;;5011551;28;218482;-71
2022/12/03 09:09:43;;;;;;;;;;;2.60;99.90;;;;;;5051747;28;20421;-71
2022/12/03 09:12:09;;;;;;;;;;;2.70;99.90;;;;;;5006808;28;179327;-71
2022/12/03 09:14:36;;;;;;;;;;;2.60;99.90;;;;;;5071108;28;19925;-71
2022/12/03 09:17:02;;;;;;;;;;;2.70;99.90;;;;;;5025507;28;173849;-72
2022/12/03 09:19:31;;;;;;;;;;;2.70;99.90;;;;;;5071385;28;19924;-72
2022/12/03 09:21:57;;;;;;;;;;;2.70;99.90;;;;;;5025509;27;228590;-71
2022/12/03 09:24:23;;;;;;;;;;;2.70;99.90;;;;;;5086714;28;19921;-72
2022/12/03 09:26:49;;;;;;;;;;;2.60;99.90;;;;;;5023115;28;207227;-71
2022/12/03 09:29:15;;;;;;;;;;;2.70;99.90;;;;;;5087093;27;19942;-72
2022/12/03 09:31:41;;;;;;;;;;;2.60;99.90;;;;;;5054323;28;211719;-71
2022/12/03 09:34:07;;;;;;;;;;;2.70;99.90;;;;;;5046573;28;202568;-71
2022/12/03 09:36:33;;;;;;;;;;;2.70;99.90;;;;;;5073050;28;19928;-71
2022/12/03 09:38:59;;;;;;;;;;;2.70;99.90;;;;;;5035952;28;77723;-72
2022/12/03 09:41:25;;;;;;;;;;;2.70;99.90;;;;;;5076974;28;19959;-71
2022/12/03 09:43:52;;;;;;;;;;;2.70;99.90;;;;;;5007409;28;146286;-71
2022/12/03 09:46:19;;;;;;;;;;;2.80;99.90;;;;;;5071052;28;19932;-71
2022/12/03 09:48:45;;;;;;;;;;;2.80;99.90;;;;;;5036350;28;86378;-72
2022/12/03 09:51:11;;;;;;;;;;;2.80;99.90;;;;;;5068810;28;19921;-71
2022/12/03 09:53:37;;;;;;;;;;;2.80;99.90;;;;;;5007591;28;204690;-72
2022/12/03 09:56:03;;;;;;;;;;;2.70;99.90;;;;;;5073932;28;19920;-71
2022/12/03 09:58:29;;;;;;;;;;;2.80;99.90;;;;;;5017434;28;153663;-71
2022/12/03 10:00:55;;;;;;;;;;;2.80;99.90;;;;;;5100418;28;20369;-71
2022/12/03 10:03:23;;;;;;;;;;;2.90;99.90;;;;;;5011694;28;135258;-71
2022/12/03 10:05:49;;;;;;;;;;;2.90;99.90;;;;;;5068298;28;19979;-71
2022/12/03 10:08:20;;;;;;;;;;;2.90;99.90;;;;;;5008970;28;207102;-72
2022/12/03 10:10:48;;;;;;;;;;;2.90;99.90;;;;;;5064859;28;19920;-71
2022/12/03 10:13:40;;;;;;;;;;;3.00;99.90;;;;;;5034532;28;156287;-71
2022/12/03 10:16:11;;;;;;;;;;;3.00;99.90;;;;;;5068304;28;20046;-71
2022/12/03 10:18:38;;;;;;;;;;;3.00;99.90;;;;;;5016767;28;211146;-72
2022/12/03 10:21:10;;;;;;;;;;;3.00;99.90;;;;;;5072782;28;20137;-71
2022/12/03 10:23:36;;;;;;;;;;;3.10;99.90;;;;;;5005431;28;128269;-72
2022/12/03 10:26:02;;;;;;;;;;;3.10;99.90;;;;;;5064078;28;19928;-72
2022/12/03 10:28:30;;;;;;;;;;;3.10;99.90;;;;;;5029324;28;157942;-72
2022/12/03 10:30:57;;;;;;;;;;;3.10;99.90;;;;;;5076102;28;19920;-72
2022/12/03 10:33:27;;;;;;;;;;;3.10;99.90;;;;;;5039733;28;207133;-71
2022/12/03 10:35:53;;;;;;;;;;;3.10;99.90;;;;;;5067624;28;20304;-71
2022/12/03 10:38:23;;;;;;;;;;;3.00;99.90;;;;;;5039366;28;204028;-72
2022/12/03 10:40:49;;;;;;;;;;;3.00;99.90;;;;;;5073500;28;19924;-71
2022/12/03 10:43:20;;;;;;;;;;;3.10;99.90;;;;;;5022091;28;145858;-72
2022/12/03 10:45:50;;;;;;;;;;;3.10;99.90;;;;;;5074178;28;19925;-71
2022/12/03 10:48:20;;;;;;;;;;;3.10;99.90;;;;;;5013615;28;160824;-71
2022/12/03 10:50:49;;;;;;;;;;;3.10;99.90;;;;;;5068607;28;19921;-71
2022/12/03 10:53:16;;;;;;;;;;;3.10;99.90;;;;;;5019471;28;227574;-71
2022/12/03 10:55:43;;;;;;;;;;;3.10;99.90;;;;;;5083713;28;19923;-71
2022/12/03 10:58:20;;;;;;;;;;;3.20;99.90;;;;;;4992751;28;206294;-71
2022/12/03 11:00:46;;;;;;;;;;;3.20;99.90;;;;;;5065486;28;19920;-71
2022/12/03 11:03:23;;;;;;;;;;;3.10;99.90;;;;;;5019156;28;86675;-71
2022/12/03 11:05:50;;;;;;;;;;;3.10;99.90;;;;;;5078697;28;19935;-71
2022/12/03 11:08:20;;;;;;;;;;;3.10;99.90;;;;;;5041944;28;185816;-71
2022/12/03 11:10:56;;;;;;;;;;;3.10;99.90;;;;;;5068590;28;19924;-71
2022/12/03 11:13:26;;;;;;;;;;;3.10;99.90;;;;;;5022875;28;207438;-71
2022/12/03 11:15:52;;;;;;;;;;;3.10;99.90;;;;;;5052097;28;19928;-71
2022/12/03 11:18:36;;;;;;;;;;;3.10;99.90;;;;;;5030817;28;137583;-71
2022/12/03 11:21:02;;;;;;;;;;;3.10;99.90;;;;;;5074675;28;19929;-71
2022/12/03 11:23:43;;;;;;;;;;;3.20;99.90;;;;;;5021490;28;166888;-71
2022/12/03 11:26:29;;;;;;;;;;;3.20;99.90;;;;;;5106566;27;19925;-71
2022/12/03 11:28:56;;;;;;;;;;;3.20;99.90;;;;;;4979545;28;131141;-71
2022/12/03 11:31:34;;;;;;;;;;;3.20;99.90;;;;;;5038526;28;19929;-71
2022/12/03 11:34:19;;;;;;;;;;;3.20;99.90;;;;;;4988735;28;222388;-72
2022/12/03 11:37:03;;;;;;;;;;;3.20;99.90;;;;;;5011383;28;100058;-71
2022/12/03 11:39:48;;;;;;;;;;;3.20;99.90;;;;;;4985682;28;20012;-71
2022/12/03 11:42:26;;;;;;;;;;;3.10;99.90;;;;;;4988693;28;207988;-71
2022/12/03 11:45:10;;;;;;;;;;;3.10;99.90;;;;;;5049026;28;20389;-71
2022/12/03 11:47:37;;;;;;;;;;;3.20;99.90;;;;;;4978689;28;206292;-71
2022/12/03 11:50:32;;;;;;;;;;;3.20;99.90;;;;;;5041081;28;19932;-71
2022/12/03 11:53:00;;;;;;;;;;;3.20;99.90;;;;;;4923914;28;208708;-71
2022/12/03 11:55:30;;;;;;;;;;;3.10;99.90;;;;;;4974691;28;19930;-72
2022/12/03 11:58:01;;;;;;;;;;;3.10;99.90;;;;;;4913949;28;143798;-71
2022/12/03 12:00:27;;;;;;;;;;;3.10;99.90;;;;;;4973892;28;19926;-71
2022/12/03 12:02:54;;;;;;;;;;;3.10;99.90;;;;;;4904245;28;153976;-71
2022/12/03 12:05:22;;;;;;;;;;;3.10;99.90;;;;;;4962773;28;19929;-72
2022/12/03 12:07:48;;;;;;;;;;;3.10;99.90;;;;;;4944309;28;215631;-71
2022/12/03 12:10:32;;;;;;;;;;;3.10;99.90;;;;;;4978405;28;20006;-71
2022/12/03 12:12:58;;;;;;;;;;;3.10;99.90;;;;;;4927404;28;179488;-72
2022/12/03 12:15:34;;;;;;;;;;;3.20;99.90;;;;;;4973217;28;19964;-72
2022/12/03 12:18:18;;;;;;;;;;;3.10;99.90;;;;;;4938120;28;199336;-71
2022/12/03 12:20:44;;;;;;;;;;;3.20;99.90;;;;;;4970736;28;19929;-72
2022/12/03 12:23:20;;;;;;;;;;;3.20;99.90;;;;;;4957824;28;212054;-72
2022/12/03 12:25:46;;;;;;;;;;;3.20;99.90;;;;;;5010887;28;19929;-71
2022/12/03 12:28:12;;;;;;;;;;;3.20;99.90;;;;;;4957512;28;175475;-71
2022/12/03 12:30:38;;;;;;;;;;;3.30;99.90;;;;;;5073840;28;19963;-71
2022/12/03 12:33:19;;;;;;;;;;;3.20;99.90;;;;;;5035439;28;207936;-71
2022/12/03 12:35:45;;;;;;;;;;;3.30;99.90;;;;;;5076859;28;19939;-72
2022/12/03 12:38:13;;;;;;;;;;;3.30;99.90;;;;;;5013869;28;208855;-71
2022/12/03 12:40:40;;;;;;;;;;;3.30;99.90;;;;;;5051168;28;19932;-71
2022/12/03 12:43:25;;;;;;;;;;;3.30;99.90;;;;;;5012168;28;219658;-71
2022/12/03 12:45:54;;;;;;;;;;;3.30;99.90;;;;;;5071470;28;19931;-71
2022/12/03 12:48:26;;;;;;;;;;;3.30;99.90;;;;;;5024183;28;196720;-71
2022/12/03 12:50:57;;;;;;;;;;;3.30;99.90;;;;;;5073175;28;19968;-71
2022/12/03 12:53:25;;;;;;;;;;;3.30;99.90;;;;;;5011978;28;137080;-71
2022/12/03 12:55:54;;;;;;;;;;;3.30;99.90;;;;;;5049743;28;19924;-72
2022/12/03 12:58:20;;;;;;;;;;;3.30;99.90;;;;;;4997583;28;207086;-71
2022/12/03 13:00:49;;;;;;;;;;;3.30;99.90;;;;;;5063060;28;19928;-71
2022/12/03 13:03:17;;;;;;;;;;;3.30;99.90;;;;;;5018435;28;186774;-71
2022/12/03 13:05:44;;;;;;;;;;;3.20;99.90;;;;;;5073744;28;20302;-72
2022/12/03 13:08:19;;;;;;;;;;;3.20;99.90;;;;;;5032542;28;222899;-71
2022/12/03 13:10:45;;;;;;;;;;;3.20;99.90;;;;;;5056598;28;20499;-71
2022/12/03 13:13:14;;;;;;;;;;;3.20;99.90;;;;;;5023596;28;207166;-70
2022/12/03 13:15:44;;;;;;;;;;;3.20;99.90;;;;;;5068561;28;19935;-72
2022/12/03 13:18:22;;;;;;;;;;;3.20;99.90;;;;;;5020525;28;179512;-71
2022/12/03 13:20:48;;;;;;;;;;;3.10;99.90;;;;;;5096269;28;19929;-72
2022/12/03 13:23:34;;;;;;;;;;;3.10;99.90;;;;;;5027060;28;213122;-71
2022/12/03 13:26:02;;;;;;;;;;;3.10;99.90;;;;;;5055062;28;19920;-72
2022/12/03 13:28:29;;;;;;;;;;;3.10;99.90;;;;;;5018853;28;225720;-72
2022/12/03 13:30:55;;;;;;;;;;;3.10;99.90;;;;;;5086153;28;19924;-71
2022/12/03 13:33:27;;;;;;;;;;;3.10;99.90;;;;;;5029872;28;132736;-72
2022/12/03 13:35:54;;;;;;;;;;;3.10;99.90;;;;;;5071132;28;20007;-71
2022/12/03 13:38:22;;;;;;;;;;;3.10;99.90;;;;;;5020771;28;157298;-71
2022/12/03 13:40:58;;;;;;;;;;;3.10;99.90;;;;;;5064887;28;19920;-71
2022/12/03 13:43:27;;;;;;;;;;;3.00;99.90;;;;;;5028294;28;111536;-72
2022/12/03 13:45:53;;;;;;;;;;;3.00;99.90;;;;;;5054774;28;19931;-71
2022/12/03 13:48:21;;;;;;;;;;;3.00;99.90;;;;;;4997425;28;120432;-71
2022/12/03 13:50:48;;;;;;;;;;;3.00;99.90;;;;;;5065893;28;20314;-72
2022/12/03 13:53:35;;;;;;;;;;;3.00;99.90;;;;;;5027808;28;132254;-71
2022/12/03 13:56:20;;;;;;;;;;;3.00;99.90;;;;;;5069574;28;20386;-71
2022/12/03 13:58:46;;;;;;;;;;;2.90;99.90;;;;;;5023780;28;70589;-72
2022/12/03 14:01:12;;;;;;;;;;;2.90;99.90;;;;;;5077249;28;19928;-72
2022/12/03 14:03:38;;;;;;;;;;;2.80;99.90;;;;;;5019363;28;206453;-71
2022/12/03 14:06:04;;;;;;;;;;;2.80;99.90;;;;;;5055182;28;20330;-71
2022/12/03 14:08:30;;;;;;;;;;;2.70;99.90;;;;;;5026216;28;129975;-72
2022/12/03 14:10:55;;;;;;;;;;;2.70;99.90;;;;;;5075784;28;20320;-72
2022/12/03 14:13:21;;;;;;;;;;;2.70;99.90;;;;;;5026864;28;112645;-71
2022/12/03 14:15:47;;;;;;;;;;;2.70;99.90;;;;;;5058509;28;19924;-71
2022/12/03 14:18:13;;;;;;;;;;;2.60;99.90;;;;;;5030825;27;182202;-71
2022/12/03 14:20:39;;;;;;;;;;;2.60;99.90;;;;;;5064868;28;19920;-71
2022/12/03 14:23:05;;;;;;;;;;;2.60;99.90;;;;;;5009163;28;201748;-71
2022/12/03 14:25:31;;;;;;;;;;;2.60;99.90;;;;;;5067150;28;20288;-71
2022/12/03 14:27:57;;;;;;;;;;;2.60;99.90;;;;;;5004608;28;155127;-72
2022/12/03 14:30:23;;;;;;;;;;;2.60;99.90;;;;;;5063848;28;19924;-71
2022/12/03 14:32:49;;;;;;;;;;;2.60;99.90;;;;;;5033439;28;182047;-72
2022/12/03 14:35:15;;;;;;;;;;;2.60;99.90;;;;;;5055271;28;20274;-71
2022/12/03 14:37:41;;;;;;;;;;;2.60;99.90;;;;;;5016720;28;210994;-72
2022/12/03 14:40:07;;;;;;;;;;;2.50;99.90;;;;;;5059335;28;19924;-72
2022/12/03 14:42:34;;;;;;;;;;;2.40;99.90;;;;;;5027731;28;206684;-71
2022/12/03 14:45:00;;;;;;;;;;;2.50;99.90;;;;;;5071687;28;19936;-73
2022/12/03 14:47:26;;;;;;;;;;;2.40;99.90;;;;;;5002439;28;207495;-71